createdAt,value
2023-05-17T00:01:46.043Z,8.23
2023-05-17T00:04:13.479Z,8.26
2023-05-17T00:06:41.461Z,8.15
2023-05-17T00:09:08.838Z,8.28
2023-05-17T00:11:35.620Z,8.15
2023-05-17T00:14:02.558Z,8.13
2023-05-17T00:16:29.916Z,8.12
2023-05-17T00:18:56.733Z,8.03
2023-05-17T00:21:23.865Z,7.96
2023-05-17T00:23:50.620Z,8.02
2023-05-17T00:26:17.368Z,8.01
2023-05-17T00:28:44.077Z,8.03
2023-05-17T00:31:10.823Z,8.10
2023-05-17T00:33:37.622Z,8.02
2023-05-17T00:36:04.750Z,8.00
2023-05-17T00:38:31.559Z,7.94
2023-05-17T00:40:58.280Z,8.00
2023-05-17T00:43:26.183Z,7.90
2023-05-17T00:45:53.050Z,8.01
2023-05-17T00:48:25.555Z,8.01
2023-05-17T00:50:53.790Z,7.91
2023-05-17T00:53:20.745Z,7.92
2023-05-17T00:55:48.561Z,7.78
2023-05-17T00:58:16.553Z,7.75
2023-05-17T01:00:43.931Z,7.70
2023-05-17T01:03:10.799Z,7.73
2023-05-17T01:05:37.583Z,7.68
2023-05-17T01:08:04.628Z,7.58
2023-05-17T01:10:42.328Z,7.59
2023-05-17T01:13:10.446Z,7.48
2023-05-17T01:15:46.408Z,7.46
2023-05-17T01:18:20.900Z,7.46
2023-05-17T01:20:49.120Z,7.45
2023-05-17T01:23:31.153Z,7.46
2023-05-17T01:26:07.882Z,7.46
2023-05-17T01:28:38.487Z,7.34
2023-05-17T01:31:07.472Z,7.35
2023-05-17T01:33:34.733Z,7.25
2023-05-17T01:36:01.743Z,7.35
2023-05-17T01:38:28.500Z,7.40
2023-05-17T01:41:13.881Z,7.50
2023-05-17T01:43:58.988Z,7.38
2023-05-17T01:46:39.178Z,7.52
2023-05-17T01:49:08.692Z,7.44
2023-05-17T01:51:45.461Z,7.27
2023-05-17T01:54:14.026Z,7.25
2023-05-17T01:56:52.186Z,7.09
2023-05-17T01:59:25.414Z,7.08
2023-05-17T02:02:00.804Z,7.05
2023-05-17T02:04:27.530Z,7.14
2023-05-17T02:06:54.305Z,7.12
2023-05-17T02:09:21.102Z,7.00
2023-05-17T02:11:47.874Z,6.90
2023-05-17T02:14:14.623Z,7.01
2023-05-17T02:16:41.542Z,7.09
2023-05-17T02:19:09.234Z,7.17
2023-05-17T02:21:36.179Z,7.20
2023-05-17T02:24:02.892Z,7.21
2023-05-17T02:26:29.824Z,7.25
2023-05-17T02:28:56.512Z,7.32
2023-05-17T02:31:24.983Z,7.27
2023-05-17T02:33:51.749Z,7.22
2023-05-17T02:36:18.561Z,7.05
2023-05-17T02:38:45.419Z,7.01
2023-05-17T02:41:12.173Z,7.01
2023-05-17T02:43:40.421Z,7.01
2023-05-17T02:46:07.188Z,7.03
2023-05-17T02:48:34.482Z,6.86
2023-05-17T02:51:02.191Z,6.84
2023-05-17T02:53:28.925Z,6.88
2023-05-17T02:55:58.193Z,6.96
2023-05-17T02:58:27.859Z,6.94
2023-05-17T03:00:54.606Z,6.89
2023-05-17T03:03:21.751Z,6.86
2023-05-17T03:05:48.616Z,6.78
2023-05-17T03:08:15.524Z,6.78
2023-05-17T03:10:44.917Z,6.69
2023-05-17T03:13:11.720Z,6.73
2023-05-17T03:15:41.371Z,6.73
2023-05-17T03:18:08.161Z,6.85
2023-05-17T03:20:35.092Z,7.02
2023-05-17T03:23:01.788Z,6.89
2023-05-17T03:25:28.818Z,6.92
2023-05-17T03:27:55.823Z,6.88
2023-05-17T03:30:22.482Z,6.88
2023-05-17T03:32:49.445Z,6.94
2023-05-17T03:35:16.365Z,6.92
2023-05-17T03:37:45.109Z,6.92
2023-05-17T03:40:13.133Z,6.86
2023-05-17T03:42:39.914Z,6.85
2023-05-17T03:45:07.362Z,6.86
2023-05-17T03:47:34.200Z,6.83
2023-05-17T03:50:00.940Z,6.82
2023-05-17T03:52:27.722Z,6.77
2023-05-17T03:54:57.253Z,6.76
2023-05-17T03:57:24.050Z,6.79
2023-05-17T03:59:50.849Z,6.86
2023-05-17T04:02:17.787Z,6.92
2023-05-17T04:04:54.628Z,6.92
2023-05-17T04:07:21.440Z,6.93
2023-05-17T04:09:48.421Z,7.07
2023-05-17T04:12:15.202Z,7.22
2023-05-17T04:14:42.013Z,7.33
2023-05-17T04:17:08.737Z,7.52
2023-05-17T04:19:35.958Z,7.60
2023-05-17T04:22:02.738Z,7.60
2023-05-17T04:24:29.526Z,7.62
2023-05-17T04:27:01.329Z,7.67
2023-05-17T04:29:29.800Z,7.74
2023-05-17T04:31:56.635Z,7.78
2023-05-17T04:34:24.976Z,7.78
2023-05-17T04:36:51.835Z,7.78
2023-05-17T04:39:18.761Z,7.82
2023-05-17T04:41:45.604Z,7.80
2023-05-17T04:44:12.406Z,7.73
2023-05-17T04:46:39.087Z,7.85
2023-05-17T04:49:06.045Z,7.90
2023-05-17T04:51:33.063Z,7.92
2023-05-17T04:54:03.279Z,7.97
2023-05-17T04:56:30.138Z,7.91
2023-05-17T04:58:56.841Z,7.94
2023-05-17T05:01:23.556Z,7.94
2023-05-17T05:03:50.620Z,7.98
2023-05-17T05:06:17.491Z,8.00
2023-05-17T05:08:44.404Z,8.03
2023-05-17T05:11:12.550Z,8.05
2023-05-17T05:13:39.361Z,8.02
2023-05-17T05:16:06.628Z,8.12
2023-05-17T05:18:33.675Z,8.11
2023-05-17T05:21:00.981Z,8.16
2023-05-17T05:23:27.714Z,8.23
2023-05-17T05:25:54.505Z,8.30
2023-05-17T05:28:21.462Z,8.29
2023-05-17T05:30:48.203Z,8.28
2023-05-17T05:33:15.039Z,8.25
2023-05-17T05:35:41.887Z,8.26
2023-05-17T05:38:08.814Z,8.30
2023-05-17T05:40:35.658Z,8.34
2023-05-17T05:43:02.353Z,8.30
2023-05-17T05:45:29.178Z,8.37
2023-05-17T05:47:55.929Z,8.42
2023-05-17T05:50:22.677Z,8.45
2023-05-17T05:52:49.427Z,8.46
2023-05-17T05:55:16.352Z,8.45
2023-05-17T05:57:43.031Z,8.54
2023-05-17T06:00:12.047Z,8.53
2023-05-17T06:02:38.870Z,8.57
2023-05-17T06:05:06.013Z,8.61
2023-05-17T06:07:32.700Z,8.66
2023-05-17T06:09:59.399Z,8.83
2023-05-17T06:12:26.152Z,8.82
2023-05-17T06:14:52.917Z,8.84
2023-05-17T06:17:21.465Z,8.93
2023-05-17T06:19:49.351Z,8.81
2023-05-17T06:22:16.355Z,8.85
2023-05-17T06:24:43.086Z,8.89
2023-05-17T06:27:09.882Z,8.81
2023-05-17T06:29:36.597Z,8.89
2023-05-17T06:32:03.612Z,9.05
2023-05-17T06:34:30.377Z,8.80
2023-05-17T06:36:57.090Z,8.86
2023-05-17T06:39:23.848Z,8.91
2023-05-17T06:41:50.610Z,8.80
2023-05-17T06:44:17.438Z,8.94
2023-05-17T06:46:44.144Z,9.21
2023-05-17T06:49:11.211Z,9.31
2023-05-17T06:51:38.040Z,9.22
2023-05-17T06:54:04.829Z,9.06
2023-05-17T06:56:31.849Z,9.41
2023-05-17T06:58:58.554Z,9.27
2023-05-17T07:01:25.849Z,9.32
2023-05-17T07:03:52.751Z,9.29
2023-05-17T07:06:19.767Z,9.21
2023-05-17T07:08:46.688Z,9.34
2023-05-17T07:11:13.533Z,9.27
2023-05-17T07:13:40.265Z,9.57
2023-05-17T07:16:08.548Z,9.46
2023-05-17T07:18:35.411Z,9.60
2023-05-17T07:21:02.258Z,9.75
2023-05-17T07:23:28.968Z,9.67
2023-05-17T07:25:55.746Z,9.87
2023-05-17T07:28:22.525Z,9.77
2023-05-17T07:30:52.120Z,9.78
2023-05-17T07:33:18.933Z,9.94
2023-05-17T07:35:45.693Z,9.98
2023-05-17T07:38:12.460Z,10.39
2023-05-17T07:40:39.151Z,10.34
2023-05-17T07:43:05.881Z,10.23
2023-05-17T07:45:32.692Z,10.58
2023-05-17T07:47:59.509Z,10.17
2023-05-17T07:50:26.429Z,10.10
2023-05-17T07:52:53.300Z,10.13
2023-05-17T07:55:21.408Z,10.29
2023-05-17T07:57:48.288Z,10.30
2023-05-17T08:00:15.708Z,10.27
2023-05-17T08:02:43.323Z,10.30
2023-05-17T08:05:10.723Z,10.46
2023-05-17T08:07:37.742Z,10.57
2023-05-17T08:10:04.843Z,10.95
2023-05-17T08:12:31.609Z,10.77
2023-05-17T08:14:58.371Z,10.41
2023-05-17T08:17:25.198Z,10.64
2023-05-17T08:19:52.115Z,10.79
2023-05-17T08:22:19.406Z,10.74
2023-05-17T08:24:46.660Z,10.50
2023-05-17T08:27:13.377Z,10.25
2023-05-17T08:29:42.600Z,10.08
2023-05-17T08:32:09.675Z,10.93
2023-05-17T08:34:36.773Z,10.86
2023-05-17T08:37:03.684Z,10.86
2023-05-17T08:39:31.553Z,10.58
2023-05-17T08:41:59.684Z,11.16
2023-05-17T08:44:28.449Z,11.15
2023-05-17T08:46:56.743Z,11.13
2023-05-17T08:49:25.941Z,11.91
2023-05-17T08:51:54.665Z,12.02
2023-05-17T08:54:22.819Z,11.69
2023-05-17T08:56:54.029Z,11.17
2023-05-17T08:59:24.204Z,10.68
2023-05-17T09:01:54.754Z,11.39
2023-05-17T09:04:22.323Z,10.94
2023-05-17T09:06:50.674Z,11.48
2023-05-17T09:09:18.809Z,11.81
2023-05-17T09:11:45.483Z,11.65
2023-05-17T09:14:12.220Z,11.38
2023-05-17T09:16:39.102Z,11.16
2023-05-17T09:19:09.731Z,11.42
2023-05-17T09:21:36.893Z,11.73
2023-05-17T09:24:07.765Z,11.68
2023-05-17T09:26:46.214Z,12.05
2023-05-17T09:29:16.051Z,11.46
2023-05-17T09:31:43.895Z,11.89
2023-05-17T09:34:11.652Z,12.14
2023-05-17T09:36:46.267Z,11.58
2023-05-17T09:39:15.217Z,11.27
2023-05-17T09:41:51.082Z,11.03
2023-05-17T09:44:17.796Z,11.41
2023-05-17T09:46:47.475Z,11.04
2023-05-17T09:49:15.519Z,11.07
2023-05-17T09:51:45.601Z,11.11
2023-05-17T09:54:12.506Z,11.57
2023-05-17T09:56:39.816Z,11.87
2023-05-17T09:59:14.822Z,11.48
2023-05-17T10:01:43.328Z,11.71
2023-05-17T10:04:11.470Z,11.87
2023-05-17T10:09:14.367Z,12.12
2023-05-17T10:11:45.738Z,11.80
2023-05-17T10:14:15.615Z,12.73
2023-05-17T10:16:43.256Z,12.75
2023-05-17T10:19:11.614Z,12.05
2023-05-17T10:21:39.416Z,12.59
2023-05-17T10:24:07.841Z,12.33
2023-05-17T10:26:35.966Z,11.61
2023-05-17T10:29:04.743Z,11.94
2023-05-17T10:31:34.106Z,12.63
2023-05-17T10:34:02.108Z,12.91
2023-05-17T10:36:29.769Z,12.24
2023-05-17T10:38:59.304Z,12.90
2023-05-17T10:41:34.260Z,13.23
2023-05-17T10:44:08.156Z,12.55
2023-05-17T10:46:36.983Z,13.01
2023-05-17T10:49:04.181Z,12.66
2023-05-17T10:51:33.816Z,12.58
2023-05-17T10:54:11.079Z,12.61
2023-05-17T10:56:47.389Z,12.71
2023-05-17T10:59:15.854Z,12.46
2023-05-17T11:01:58.050Z,13.00
2023-05-17T11:04:27.329Z,13.67
2023-05-17T11:07:25.064Z,13.64
2023-05-17T11:09:51.892Z,13.36
2023-05-17T11:12:31.312Z,13.44
2023-05-17T11:14:59.829Z,13.27
2023-05-17T11:17:33.999Z,12.98
2023-05-17T11:20:13.577Z,13.38
2023-05-17T11:22:58.960Z,13.46
2023-05-17T11:25:31.414Z,12.67
2023-05-17T11:27:59.048Z,12.48
2023-05-17T11:30:29.088Z,12.72
2023-05-17T11:33:01.751Z,12.53
2023-05-17T11:35:39.491Z,12.03
2023-05-17T11:38:24.137Z,12.83
2023-05-17T11:40:56.344Z,13.49
2023-05-17T11:43:25.363Z,14.29
2023-05-17T11:46:04.173Z,13.82
2023-05-17T11:48:31.571Z,13.23
2023-05-17T11:51:00.034Z,13.38
2023-05-17T11:53:31.011Z,13.15
2023-05-17T11:56:02.263Z,13.03
2023-05-17T11:58:29.705Z,13.35
2023-05-17T12:01:01.511Z,13.87
2023-05-17T12:03:29.420Z,14.07
2023-05-17T12:06:15.533Z,14.38
2023-05-17T12:08:47.122Z,13.96
2023-05-17T12:11:18.690Z,14.12
2023-05-17T12:13:48.900Z,13.35
2023-05-17T12:16:18.427Z,12.99
2023-05-17T12:18:49.680Z,13.02
2023-05-17T12:21:18.305Z,12.88
2023-05-17T12:23:49.582Z,13.85
2023-05-17T12:26:20.808Z,13.40
2023-05-17T12:29:02.428Z,13.45
2023-05-17T12:31:41.757Z,13.06
2023-05-17T12:34:09.877Z,13.12
2023-05-17T12:36:40.513Z,12.76
2023-05-17T12:39:09.405Z,12.66
2023-05-17T12:41:37.170Z,13.18
2023-05-17T12:44:14.382Z,13.10
2023-05-17T12:46:42.870Z,13.31
2023-05-17T12:49:11.947Z,13.80
2023-05-17T12:51:46.341Z,13.76
2023-05-17T12:54:25.095Z,13.57
2023-05-17T12:56:51.959Z,13.18
2023-05-17T12:59:21.156Z,13.31
2023-05-17T13:01:50.649Z,13.29
2023-05-17T13:04:20.982Z,12.75
2023-05-17T13:06:49.347Z,13.18
2023-05-17T13:09:21.914Z,13.45
2023-05-17T13:11:53.271Z,13.85
2023-05-17T13:14:48.443Z,13.02
2023-05-17T13:17:16.905Z,13.47
2023-05-17T13:19:43.772Z,13.23
2023-05-17T13:22:10.849Z,13.21
2023-05-17T13:24:38.807Z,13.31
2023-05-17T13:27:06.705Z,13.58
2023-05-17T13:29:40.150Z,13.47
2023-05-17T13:32:09.383Z,14.03
2023-05-17T13:34:36.859Z,13.64
2023-05-17T13:37:04.968Z,13.43
2023-05-17T13:39:31.830Z,12.95
2023-05-17T13:41:59.160Z,13.15
2023-05-17T13:44:26.376Z,13.18
2023-05-17T13:46:53.211Z,13.35
2023-05-17T13:49:20.092Z,13.60
2023-05-17T13:51:46.854Z,13.04
2023-05-17T13:54:13.506Z,13.41
2023-05-17T13:56:40.583Z,14.08
2023-05-17T13:59:07.543Z,13.87
2023-05-17T14:01:34.446Z,13.45
2023-05-17T14:04:01.379Z,14.40
2023-05-17T14:06:28.653Z,13.90
2023-05-17T14:08:59.710Z,14.80
2023-05-17T14:11:26.604Z,14.36
2023-05-17T14:13:53.413Z,13.53
2023-05-17T14:16:20.226Z,13.22
2023-05-17T14:18:47.279Z,13.22
2023-05-17T14:21:14.121Z,13.10
2023-05-17T14:23:40.964Z,12.97
2023-05-17T14:26:07.818Z,12.84
2023-05-17T14:28:38.049Z,12.38
2023-05-17T14:31:09.563Z,13.33
2023-05-17T14:33:38.765Z,12.89
2023-05-17T14:36:05.775Z,12.49
2023-05-17T14:38:32.677Z,12.55
2023-05-17T14:41:05.247Z,13.09
2023-05-17T14:43:32.633Z,13.03
2023-05-17T14:45:59.349Z,13.09
2023-05-17T14:48:26.418Z,12.96
2023-05-17T14:50:53.418Z,13.06
2023-05-17T14:53:20.251Z,12.67
2023-05-17T14:55:47.678Z,12.14
2023-05-17T14:58:14.432Z,12.15
2023-05-17T15:00:44.808Z,12.31
2023-05-17T15:03:11.770Z,12.73
2023-05-17T15:05:38.874Z,13.19
2023-05-17T15:08:05.847Z,13.07
2023-05-17T15:10:32.560Z,13.05
2023-05-17T15:12:59.366Z,12.68
2023-05-17T15:15:26.068Z,12.12
2023-05-17T15:17:53.029Z,12.20
2023-05-17T15:20:20.402Z,11.94
2023-05-17T15:22:48.277Z,12.27
2023-05-17T15:25:15.535Z,12.30
2023-05-17T15:27:42.262Z,12.08
2023-05-17T15:30:11.838Z,12.19
2023-05-17T15:32:40.030Z,12.25
2023-05-17T15:35:07.795Z,11.74
2023-05-17T15:37:37.872Z,11.82
2023-05-17T15:40:09.789Z,12.18
2023-05-17T15:42:37.047Z,12.10
2023-05-17T15:45:07.258Z,12.05
2023-05-17T15:50:03.969Z,11.87
2023-05-17T15:52:30.869Z,12.18
2023-05-17T15:54:57.641Z,11.88
2023-05-17T15:57:24.349Z,11.69
2023-05-17T15:59:51.438Z,11.51
2023-05-17T16:02:21.171Z,11.56
2023-05-17T16:04:47.850Z,11.62
2023-05-17T16:07:14.529Z,11.42
2023-05-17T16:09:41.224Z,11.58
2023-05-17T16:12:08.233Z,11.95
2023-05-17T16:14:35.839Z,11.67
2023-05-17T16:17:05.797Z,12.23
2023-05-17T16:19:34.244Z,12.20
2023-05-17T16:22:01.388Z,11.56
2023-05-17T16:24:28.286Z,11.59
2023-05-17T16:26:55.011Z,11.59
2023-05-17T16:29:21.678Z,11.76
2023-05-17T16:31:48.766Z,11.86
2023-05-17T16:34:15.551Z,12.10
2023-05-17T16:36:42.464Z,11.77
2023-05-17T16:39:09.149Z,11.57
2023-05-17T16:41:35.968Z,11.59
2023-05-17T16:44:02.719Z,11.54
2023-05-17T16:46:29.584Z,11.50
2023-05-17T16:48:57.827Z,11.67
2023-05-17T16:51:24.583Z,11.55
2023-05-17T16:53:53.790Z,11.43
2023-05-17T16:56:22.220Z,11.40
2023-05-17T16:58:49.027Z,11.29
2023-05-17T17:01:19.247Z,11.45
2023-05-17T17:03:46.145Z,11.34
2023-05-17T17:06:12.969Z,11.16
2023-05-17T17:08:39.724Z,11.25
2023-05-17T17:11:06.466Z,11.36
2023-05-17T17:13:33.187Z,11.31
2023-05-17T17:16:00.020Z,11.28
2023-05-17T17:18:26.882Z,11.04
2023-05-17T17:20:54.077Z,11.11
2023-05-17T17:23:20.790Z,10.88
2023-05-17T17:25:47.512Z,10.89
2023-05-17T17:28:14.225Z,10.80
2023-05-17T17:30:41.007Z,10.72
2023-05-17T17:33:07.759Z,10.53
2023-05-17T17:35:34.553Z,10.65
2023-05-17T17:38:03.121Z,10.50
2023-05-17T17:40:30.128Z,10.56
2023-05-17T17:42:57.248Z,10.52
2023-05-17T17:45:24.085Z,10.62
2023-05-17T17:47:51.094Z,10.61
2023-05-17T17:50:17.881Z,10.42
2023-05-17T17:52:44.776Z,10.50
2023-05-17T17:55:13.019Z,10.23
2023-05-17T17:57:39.721Z,10.40
2023-05-17T18:00:07.963Z,10.45
2023-05-17T18:02:35.427Z,10.26
2023-05-17T18:05:02.430Z,10.33
2023-05-17T18:07:29.217Z,10.30
2023-05-17T18:09:57.001Z,10.38
2023-05-17T18:12:27.099Z,10.22
2023-05-17T18:14:54.162Z,10.11
2023-05-17T18:17:21.065Z,10.19
2023-05-17T18:19:48.754Z,10.15
2023-05-17T18:22:17.003Z,10.03
2023-05-17T18:24:43.847Z,9.98
2023-05-17T18:27:14.312Z,9.84
2023-05-17T18:29:41.371Z,9.96
2023-05-17T18:32:09.481Z,9.97
2023-05-17T18:34:36.624Z,9.95
2023-05-17T18:37:03.505Z,9.93
2023-05-17T18:39:30.509Z,9.90
2023-05-17T18:41:57.372Z,9.90
2023-05-17T18:44:26.551Z,9.84
2023-05-17T18:46:54.079Z,9.84
2023-05-17T18:49:21.447Z,9.85
2023-05-17T18:51:48.329Z,9.81
2023-05-17T18:54:15.013Z,9.79
2023-05-17T18:56:41.791Z,9.75
2023-05-17T18:59:08.524Z,9.67
2023-05-17T19:01:37.874Z,9.61
2023-05-17T19:04:04.679Z,9.70
2023-05-17T19:06:31.997Z,9.65
2023-05-17T19:08:58.913Z,9.66
2023-05-17T19:11:26.740Z,9.63
2023-05-17T19:13:53.410Z,9.62
2023-05-17T19:16:20.551Z,9.63
2023-05-17T19:18:47.338Z,9.61
2023-05-17T19:21:14.059Z,9.60
2023-05-17T19:23:40.945Z,9.60
2023-05-17T19:26:07.688Z,9.51
2023-05-17T19:28:35.849Z,9.50
2023-05-17T19:31:03.667Z,9.40
2023-05-17T19:33:32.048Z,9.28
2023-05-17T19:35:58.753Z,9.29
2023-05-17T19:38:25.573Z,9.22
2023-05-17T19:40:52.534Z,9.15
2023-05-17T19:43:19.257Z,9.28
2023-05-17T19:45:46.196Z,9.13
2023-05-17T19:48:13.290Z,9.12
2023-05-17T19:50:40.147Z,9.15
2023-05-17T19:53:06.858Z,9.06
2023-05-17T19:55:35.431Z,9.01
2023-05-17T19:58:03.249Z,9.08
2023-05-17T20:00:31.839Z,9.04
2023-05-17T20:02:59.023Z,8.93
2023-05-17T20:05:27.250Z,9.04
2023-05-17T20:07:54.243Z,9.00
2023-05-17T20:10:21.142Z,8.93
2023-05-17T20:12:49.105Z,8.97
2023-05-17T20:15:15.790Z,8.95
2023-05-17T20:17:42.587Z,8.98
2023-05-17T20:20:09.688Z,8.93
2023-05-17T20:22:38.255Z,8.88
2023-05-17T20:25:05.258Z,8.92
2023-05-17T20:27:31.941Z,8.90
2023-05-17T20:29:58.604Z,8.90
2023-05-17T20:32:27.828Z,8.88
2023-05-17T20:34:54.551Z,8.82
2023-05-17T20:37:21.318Z,8.83
2023-05-17T20:39:48.146Z,8.88
2023-05-17T20:42:18.575Z,8.84
2023-05-17T20:44:45.889Z,8.88
2023-05-17T20:47:13.382Z,8.76
2023-05-17T20:49:40.087Z,8.79
2023-05-17T20:52:07.017Z,8.79
2023-05-17T20:54:33.835Z,8.84
2023-05-17T20:57:00.705Z,8.75
2023-05-17T20:59:27.505Z,8.74
2023-05-17T21:01:54.256Z,8.69
2023-05-17T21:04:21.195Z,8.71
2023-05-17T21:06:47.916Z,8.73
2023-05-17T21:09:14.975Z,8.73
2023-05-17T21:11:41.745Z,8.65
2023-05-17T21:14:08.749Z,8.62
2023-05-17T21:16:35.638Z,8.69
2023-05-17T21:19:02.977Z,8.69
2023-05-17T21:21:29.732Z,8.68
2023-05-17T21:23:56.443Z,8.70
2023-05-17T21:26:23.240Z,8.68
2023-05-17T21:28:50.026Z,8.65
2023-05-17T21:31:18.991Z,8.67
2023-05-17T21:33:45.864Z,8.48
2023-05-17T21:36:12.581Z,8.60
2023-05-17T21:38:39.378Z,8.55
2023-05-17T21:41:06.275Z,8.51
2023-05-17T21:43:33.155Z,8.50
2023-05-17T21:45:59.922Z,8.45
2023-05-17T21:48:26.757Z,8.40
2023-05-17T21:50:53.501Z,8.35
2023-05-17T21:53:20.375Z,8.28
2023-05-17T21:58:20.530Z,8.12
2023-05-17T22:00:47.423Z,8.08
2023-05-17T22:03:14.282Z,7.98
2023-05-17T22:05:41.473Z,7.86
2023-05-17T22:08:08.196Z,7.73
2023-05-17T22:10:34.896Z,7.62
2023-05-17T22:13:02.273Z,7.48
2023-05-17T22:15:29.159Z,7.34
2023-05-17T22:17:55.953Z,7.19
2023-05-17T22:20:27.407Z,7.21
2023-05-17T22:22:54.171Z,7.08
2023-05-17T22:25:21.158Z,6.98
2023-05-17T22:27:47.912Z,6.94
2023-05-17T22:30:14.711Z,6.88
2023-05-17T22:32:41.433Z,6.82
2023-05-17T22:35:11.992Z,6.87
2023-05-17T22:37:43.756Z,6.77
2023-05-17T22:40:10.861Z,6.83
2023-05-17T22:42:37.693Z,6.76
2023-05-17T22:45:04.812Z,6.71
2023-05-17T22:47:34.268Z,6.70
2023-05-17T22:50:03.266Z,6.60
2023-05-17T22:52:30.000Z,6.59
2023-05-17T22:54:56.880Z,6.56
2023-05-17T22:57:23.663Z,6.46
2023-05-17T22:59:50.556Z,6.29
2023-05-17T23:02:17.321Z,6.37
2023-05-17T23:04:46.009Z,6.40
2023-05-17T23:07:12.903Z,6.60
2023-05-17T23:09:40.587Z,6.64
2023-05-17T23:12:08.904Z,6.53
2023-05-17T23:14:36.736Z,6.44
2023-05-17T23:17:04.614Z,6.37
2023-05-17T23:19:33.351Z,6.24
2023-05-17T23:22:03.207Z,6.21
2023-05-17T23:24:30.222Z,6.21
2023-05-17T23:26:57.709Z,6.07
2023-05-17T23:29:25.942Z,6.00
2023-05-17T23:31:53.513Z,5.98
2023-05-17T23:34:23.811Z,5.97
2023-05-17T23:36:50.823Z,6.00
2023-05-17T23:39:18.024Z,5.96
2023-05-17T23:41:45.041Z,5.72
2023-05-17T23:44:14.802Z,5.57
2023-05-17T23:46:44.576Z,5.50
2023-05-17T23:49:11.431Z,5.48
2023-05-17T23:51:38.197Z,5.53
2023-05-17T23:54:05.128Z,5.47
2023-05-17T23:56:31.890Z,5.46
2023-05-17T23:58:58.629Z,5.27
